METAR Data
IDs: Format: Raw Decoded Include TAF

Data at: 2029 UTC 08 Feb 2023

KNUW 081853Z 16010KT 10SM SCT025 BKN030 BKN120 BKN200 08/03 A3054 RMK SLP342 T00780033